createdAt,value
2018-06-17T00:02:10.093Z,88.70
2018-06-17T00:04:37.617Z,86.00
2018-06-17T00:07:05.920Z,87.10
2018-06-17T00:09:33.888Z,86.30
2018-06-17T00:12:01.868Z,87.00
2018-06-17T00:14:29.719Z,88.00
2018-06-17T00:19:25.195Z,88.60
2018-06-17T00:21:53.225Z,87.70
2018-06-17T00:24:21.153Z,86.20
2018-06-17T00:26:48.663Z,86.00
2018-06-17T00:29:17.525Z,85.70
2018-06-17T00:31:45.597Z,87.60
2018-06-17T00:34:13.827Z,87.30
2018-06-17T00:39:10.237Z,88.30
2018-06-17T00:41:38.567Z,88.90
2018-06-17T00:44:06.951Z,87.60
2018-06-17T00:46:35.322Z,88.40
2018-06-17T00:51:31.441Z,90.50
2018-06-17T00:53:58.979Z,89.50
2018-06-17T00:56:26.984Z,88.70
2018-06-17T00:58:54.730Z,88.70
2018-06-17T01:01:22.668Z,88.50
2018-06-17T01:03:50.929Z,88.20
2018-06-17T01:06:19.151Z,88.40
2018-06-17T01:08:46.753Z,88.20
2018-06-17T01:11:15.076Z,89.80
2018-06-17T01:13:42.664Z,88.70
2018-06-17T01:16:10.228Z,89.70
2018-06-17T01:18:37.769Z,90.40
2018-06-17T01:21:06.152Z,91.50
2018-06-17T01:23:33.679Z,89.90
2018-06-17T01:26:07.845Z,89.30
2018-06-17T01:28:36.663Z,89.00
2018-06-17T01:31:04.648Z,88.70
2018-06-17T01:33:33.227Z,89.80
2018-06-17T01:36:00.881Z,91.00
2018-06-17T01:38:29.192Z,90.60
2018-06-17T01:40:57.363Z,92.20
2018-06-17T01:43:25.274Z,90.60
2018-06-17T01:45:53.267Z,90.00
2018-06-17T01:48:21.184Z,89.60
2018-06-17T01:50:48.727Z,89.80
2018-06-17T01:53:16.281Z,89.50
2018-06-17T01:55:44.272Z,89.70
2018-06-17T01:58:11.801Z,91.00
2018-06-17T02:00:39.828Z,89.10
2018-06-17T02:03:13.129Z,90.40
2018-06-17T02:05:47.072Z,89.80
2018-06-17T02:08:20.196Z,89.70
2018-06-17T02:10:54.611Z,88.80
2018-06-17T02:13:22.150Z,89.70
2018-06-17T02:15:50.236Z,89.40
2018-06-17T02:18:18.400Z,88.80
2018-06-17T02:20:46.785Z,89.30
2018-06-17T02:23:14.580Z,87.90
2018-06-17T02:25:42.623Z,88.90
2018-06-17T02:28:10.122Z,88.80
2018-06-17T02:30:38.024Z,91.00
2018-06-17T02:33:06.042Z,91.30
2018-06-17T02:35:33.944Z,93.00
2018-06-17T02:38:02.148Z,90.70
2018-06-17T02:40:30.360Z,91.00
2018-06-17T02:45:33.379Z,90.30
2018-06-17T02:50:39.760Z,90.60
2018-06-17T02:53:14.300Z,90.00
2018-06-17T02:55:41.820Z,90.70
2018-06-17T02:58:09.344Z,89.40
2018-06-17T03:00:37.800Z,90.20
2018-06-17T03:03:06.023Z,89.20
2018-06-17T03:05:33.540Z,89.40
2018-06-17T03:08:01.056Z,89.60
2018-06-17T03:10:29.284Z,92.20
2018-06-17T03:12:56.837Z,90.80
2018-06-17T03:15:24.381Z,90.70
2018-06-17T03:17:51.925Z,90.20
2018-06-17T03:20:20.051Z,89.80
2018-06-17T03:25:21.272Z,90.40
2018-06-17T03:27:54.312Z,89.70
2018-06-17T03:30:28.667Z,90.20
2018-06-17T03:33:02.965Z,90.60
2018-06-17T03:35:36.659Z,90.90
2018-06-17T03:40:32.291Z,91.80
2018-06-17T03:43:00.164Z,90.40
2018-06-17T03:45:28.108Z,91.90
2018-06-17T03:47:55.635Z,90.00
2018-06-17T03:50:23.219Z,91.90
2018-06-17T03:52:50.760Z,90.80
2018-06-17T03:55:18.307Z,90.40
2018-06-17T03:57:45.891Z,90.30
2018-06-17T04:00:13.840Z,90.60
2018-06-17T04:02:41.360Z,89.30
2018-06-17T04:05:14.436Z,90.00
2018-06-17T04:07:41.969Z,88.80
2018-06-17T04:10:10.332Z,89.10
2018-06-17T04:15:05.316Z,88.10
2018-06-17T04:17:32.949Z,88.90
2018-06-17T04:20:00.815Z,89.10
2018-06-17T04:22:28.784Z,88.30
2018-06-17T04:24:56.955Z,88.10
2018-06-17T04:29:52.823Z,87.70
2018-06-17T04:32:21.297Z,87.70
2018-06-17T04:34:49.136Z,87.90
2018-06-17T04:37:16.631Z,87.40
2018-06-17T04:39:44.504Z,87.40
2018-06-17T04:42:12.664Z,86.80
2018-06-17T04:44:40.740Z,86.70
2018-06-17T04:47:08.256Z,86.40
2018-06-17T04:49:35.784Z,86.20
2018-06-17T04:52:03.328Z,85.40
2018-06-17T04:54:31.128Z,84.60
2018-06-17T04:56:59.291Z,84.30
2018-06-17T05:01:54.232Z,83.90
2018-06-17T05:04:22.975Z,84.20
2018-06-17T05:06:50.488Z,83.10
2018-06-17T05:09:18.096Z,83.30
2018-06-17T05:11:47.120Z,82.80
2018-06-17T05:14:15.224Z,82.60
2018-06-17T05:16:42.760Z,82.20
2018-06-17T05:19:10.280Z,82.00
2018-06-17T05:21:38.696Z,82.00
2018-06-17T05:24:06.540Z,81.90
2018-06-17T05:26:34.062Z,81.60
2018-06-17T05:29:02.432Z,81.70
2018-06-17T05:31:30.304Z,81.00
2018-06-17T05:33:58.705Z,80.60
2018-06-17T05:36:26.759Z,80.60
2018-06-17T05:38:55.145Z,80.40
2018-06-17T05:41:22.670Z,80.10
2018-06-17T05:43:50.676Z,80.40
2018-06-17T05:46:18.588Z,80.20
2018-06-17T05:48:46.624Z,80.00
2018-06-17T05:51:14.167Z,79.40
2018-06-17T05:53:41.707Z,79.40
2018-06-17T05:56:09.731Z,79.10
2018-06-17T05:58:37.244Z,78.90
2018-06-17T06:01:04.921Z,78.90
2018-06-17T06:03:32.450Z,78.90
2018-06-17T06:06:00.034Z,78.80
2018-06-17T06:08:27.672Z,78.70
2018-06-17T06:10:55.968Z,78.60
2018-06-17T06:13:23.480Z,78.60
2018-06-17T06:15:51.004Z,78.80
2018-06-17T06:18:19.176Z,78.40
2018-06-17T06:20:47.728Z,78.50
2018-06-17T06:23:15.556Z,78.40
2018-06-17T06:25:43.564Z,78.20
2018-06-17T06:28:11.105Z,77.90
2018-06-17T06:30:39.223Z,77.90
2018-06-17T06:33:06.724Z,77.00
2018-06-17T06:35:35.169Z,76.80
2018-06-17T06:40:30.204Z,75.80
2018-06-17T06:42:58.090Z,75.40
2018-06-17T06:45:26.089Z,75.40
2018-06-17T06:47:54.299Z,74.30
2018-06-17T06:50:22.714Z,73.30
2018-06-17T06:52:51.448Z,74.40
2018-06-17T06:55:19.492Z,74.20
2018-06-17T06:57:47.549Z,72.90
2018-06-17T07:00:15.096Z,73.90
2018-06-17T07:02:54.086Z,72.90
2018-06-17T07:05:33.493Z,72.60
2018-06-17T07:08:14.847Z,73.00
2018-06-17T07:10:43.501Z,71.80
2018-06-17T07:13:11.928Z,70.60
2018-06-17T07:15:51.352Z,71.10
2018-06-17T07:18:35.760Z,71.70
2018-06-17T07:21:03.985Z,71.70
2018-06-17T07:23:32.886Z,71.80
2018-06-17T07:26:42.354Z,71.70
2018-06-17T07:29:22.705Z,70.50
2018-06-17T07:31:50.989Z,70.40
2018-06-17T07:34:19.025Z,70.50
2018-06-17T07:36:46.556Z,69.00
2018-06-17T07:42:51.284Z,70.90
2018-06-17T07:45:19.292Z,69.50
2018-06-17T07:47:46.882Z,67.50
2018-06-17T07:50:26.988Z,68.10
2018-06-17T07:53:06.360Z,68.30
2018-06-17T07:55:33.944Z,68.10
2018-06-17T07:58:01.521Z,67.60
2018-06-17T08:00:29.182Z,68.00
2018-06-17T08:02:56.813Z,68.40
2018-06-17T08:05:24.411Z,66.90
2018-06-17T08:07:52.555Z,67.50
2018-06-17T08:10:20.102Z,67.00
2018-06-17T08:12:48.372Z,66.70
2018-06-17T08:15:15.929Z,66.90
2018-06-17T08:17:43.620Z,66.60
2018-06-17T08:20:12.038Z,67.00
2018-06-17T08:22:39.907Z,67.00
2018-06-17T08:25:07.568Z,64.70
2018-06-17T08:27:35.923Z,65.50
2018-06-17T08:30:04.425Z,65.60
2018-06-17T08:32:32.297Z,65.10
2018-06-17T08:35:00.652Z,65.40
2018-06-17T08:37:28.544Z,65.70
2018-06-17T08:39:56.856Z,65.90
2018-06-17T08:42:24.838Z,65.90
2018-06-17T08:44:52.764Z,65.90
2018-06-17T08:47:20.641Z,64.60
2018-06-17T08:49:48.227Z,63.90
2018-06-17T08:52:15.756Z,64.10
2018-06-17T08:54:43.315Z,63.80
2018-06-17T08:57:11.157Z,63.40
2018-06-17T08:59:38.667Z,62.70
2018-06-17T09:02:07.036Z,62.50
2018-06-17T09:04:35.632Z,61.70
2018-06-17T09:07:04.474Z,62.80
2018-06-17T09:09:32.891Z,61.40
2018-06-17T09:12:00.952Z,61.30
2018-06-17T09:16:56.955Z,59.60
2018-06-17T09:19:24.853Z,59.60
2018-06-17T09:21:52.800Z,58.80
2018-06-17T09:24:20.889Z,60.20
2018-06-17T09:26:49.705Z,58.70
2018-06-17T09:29:17.261Z,60.20
2018-06-17T09:31:45.170Z,59.50
2018-06-17T09:34:13.092Z,58.70
2018-06-17T09:36:40.657Z,58.40
2018-06-17T09:39:08.827Z,57.90
2018-06-17T09:41:36.451Z,58.00
2018-06-17T09:46:33.152Z,58.00
2018-06-17T09:49:01.043Z,57.40
2018-06-17T09:51:28.611Z,56.40
2018-06-17T09:53:56.873Z,57.10
2018-06-17T09:56:24.461Z,56.20
2018-06-17T09:58:52.440Z,56.30
2018-06-17T10:01:20.092Z,56.60
2018-06-17T10:03:47.710Z,57.00
2018-06-17T10:06:15.921Z,54.50
2018-06-17T10:08:43.452Z,53.80
2018-06-17T10:11:11.973Z,54.50
2018-06-17T10:13:42.720Z,53.10
2018-06-17T10:16:11.128Z,53.10
2018-06-17T10:18:39.324Z,52.00
2018-06-17T10:21:07.891Z,52.70
2018-06-17T10:23:35.468Z,51.20
2018-06-17T10:26:03.412Z,52.70
2018-06-17T10:28:32.245Z,52.90
2018-06-17T10:31:01.760Z,52.00
2018-06-17T10:33:30.512Z,52.00
2018-06-17T10:35:58.123Z,51.50
2018-06-17T10:38:25.672Z,51.10
2018-06-17T10:40:53.259Z,50.90
2018-06-17T10:43:23.662Z,49.50
2018-06-17T10:48:19.506Z,50.60
2018-06-17T10:50:47.185Z,49.60
2018-06-17T10:55:42.304Z,48.80
2018-06-17T10:58:09.905Z,49.90
2018-06-17T11:00:37.571Z,49.30
2018-06-17T11:03:05.776Z,46.80
2018-06-17T11:05:34.270Z,45.90
2018-06-17T11:08:01.824Z,47.80
2018-06-17T11:10:30.646Z,46.30
2018-06-17T11:12:58.739Z,45.80
2018-06-17T11:15:27.258Z,45.20
2018-06-17T11:17:54.825Z,45.80
2018-06-17T11:20:22.772Z,46.20
2018-06-17T11:22:51.865Z,45.30
2018-06-17T11:27:48.128Z,44.60
2018-06-17T11:30:15.692Z,42.70
2018-06-17T11:32:44.288Z,42.30
2018-06-17T11:35:12.545Z,38.40
2018-06-17T11:40:08.292Z,40.40
2018-06-17T11:42:36.438Z,40.40
2018-06-17T11:45:04.391Z,40.00
2018-06-17T11:47:32.013Z,39.50
2018-06-17T11:52:27.096Z,39.30
2018-06-17T11:54:54.851Z,38.70
2018-06-17T11:57:23.288Z,39.30
2018-06-17T11:59:51.580Z,34.90
2018-06-17T12:02:19.117Z,34.20
2018-06-17T12:04:46.636Z,35.40
2018-06-17T12:07:14.690Z,35.50
2018-06-17T12:09:42.291Z,34.60
2018-06-17T12:12:10.290Z,36.20
2018-06-17T12:14:38.663Z,35.10
2018-06-17T12:17:06.224Z,35.30
2018-06-17T12:19:34.947Z,35.30
2018-06-17T12:24:31.102Z,36.20
2018-06-17T12:29:26.133Z,34.30
2018-06-17T12:31:55.017Z,34.80
2018-06-17T12:34:23.108Z,34.30
2018-06-17T12:36:50.726Z,34.20
2018-06-17T12:39:18.768Z,33.90
2018-06-17T12:41:46.920Z,33.50
2018-06-17T12:46:42.970Z,32.60
2018-06-17T12:49:10.929Z,33.70
2018-06-17T12:51:38.496Z,33.00
2018-06-17T12:54:06.040Z,32.80
2018-06-17T12:56:33.602Z,34.40
2018-06-17T12:59:01.315Z,34.40
2018-06-17T13:01:29.019Z,34.40
2018-06-17T13:03:56.587Z,34.30
2018-06-17T13:06:24.744Z,34.10
2018-06-17T13:08:53.305Z,34.50
2018-06-17T13:11:21.483Z,34.50
2018-06-17T13:13:49.492Z,34.30
2018-06-17T13:16:17.805Z,35.80
2018-06-17T13:18:46.155Z,36.30
2018-06-17T13:21:14.491Z,37.00
2018-06-17T13:26:10.476Z,37.90
2018-06-17T13:28:38.512Z,39.00
2018-06-17T13:33:35.365Z,40.40
2018-06-17T13:36:04.134Z,40.50
2018-06-17T13:38:32.779Z,40.60
2018-06-17T13:41:00.570Z,40.70
2018-06-17T13:43:29.160Z,40.30
2018-06-17T13:45:57.768Z,41.40
2018-06-17T13:48:26.228Z,41.20
2018-06-17T13:50:54.160Z,41.90
2018-06-17T13:53:22.585Z,41.00
2018-06-17T13:55:51.177Z,40.30
2018-06-17T13:58:18.976Z,40.00
2018-06-17T14:00:46.978Z,39.30
2018-06-17T14:03:16.130Z,41.20
2018-06-17T14:05:44.654Z,40.30
2018-06-17T14:08:13.684Z,40.10
2018-06-17T14:10:41.458Z,39.30
2018-06-17T14:13:09.592Z,38.50
2018-06-17T14:15:38.040Z,38.90
2018-06-17T14:18:06.011Z,38.70
2018-06-17T14:20:34.543Z,38.10
2018-06-17T14:25:31.394Z,37.70
2018-06-17T14:27:59.335Z,38.50
2018-06-17T14:30:28.444Z,38.40
2018-06-17T14:32:57.037Z,38.30
2018-06-17T14:35:25.950Z,39.30
2018-06-17T14:37:54.239Z,38.30
2018-06-17T14:40:22.741Z,36.50
2018-06-17T14:42:56.074Z,34.50
2018-06-17T14:45:30.489Z,34.10
2018-06-17T14:48:03.828Z,32.90
2018-06-17T14:50:37.165Z,33.70
2018-06-17T14:53:06.861Z,34.10
2018-06-17T14:55:35.424Z,32.20
2018-06-17T14:58:03.330Z,32.50
2018-06-17T15:00:31.154Z,32.10
2018-06-17T15:02:59.046Z,31.30
2018-06-17T15:05:29.134Z,30.30
2018-06-17T15:07:57.638Z,29.40
2018-06-17T15:10:25.514Z,29.60
2018-06-17T15:12:53.841Z,30.40
2018-06-17T15:15:22.128Z,30.30
2018-06-17T15:17:50.007Z,29.70
2018-06-17T15:20:18.570Z,29.40
2018-06-17T15:22:46.944Z,29.30
2018-06-17T15:25:14.895Z,30.00
2018-06-17T15:27:42.926Z,29.80
2018-06-17T15:30:10.915Z,30.50
2018-06-17T15:32:45.543Z,28.90
2018-06-17T15:35:20.985Z,29.70
2018-06-17T15:37:54.265Z,29.20
2018-06-17T15:40:27.504Z,29.30
2018-06-17T15:42:56.537Z,29.30
2018-06-17T15:45:24.669Z,28.30
2018-06-17T15:47:52.245Z,27.90
2018-06-17T15:50:19.917Z,27.50
2018-06-17T15:52:48.078Z,26.50
2018-06-17T15:55:15.683Z,27.60
2018-06-17T15:57:44.081Z,29.20
2018-06-17T16:00:11.644Z,31.30
2018-06-17T16:02:39.613Z,30.80
2018-06-17T16:05:07.607Z,32.00
2018-06-17T16:07:35.559Z,32.60
2018-06-17T16:10:03.744Z,33.00
2018-06-17T16:12:37.641Z,35.20
2018-06-17T16:15:10.916Z,37.40
2018-06-17T16:17:44.224Z,37.70
2018-06-17T16:20:19.411Z,38.00
2018-06-17T16:22:46.950Z,39.00
2018-06-17T16:25:15.042Z,40.30
2018-06-17T16:27:42.712Z,41.10
2018-06-17T16:30:10.808Z,42.70
2018-06-17T16:32:38.843Z,43.20
2018-06-17T16:35:07.012Z,44.30
2018-06-17T16:42:30.758Z,45.70
2018-06-17T16:44:58.778Z,46.20
2018-06-17T16:47:27.545Z,46.90
2018-06-17T16:49:55.754Z,48.10
2018-06-17T16:52:28.928Z,48.60
2018-06-17T16:55:02.348Z,48.40
2018-06-17T16:57:36.044Z,49.10
2018-06-17T17:00:08.350Z,49.70
2018-06-17T17:05:03.756Z,49.90
2018-06-17T17:07:32.462Z,49.80
2018-06-17T17:10:00.456Z,50.20
2018-06-17T17:12:29.164Z,50.10
2018-06-17T17:14:56.679Z,51.10
2018-06-17T17:17:24.632Z,51.50
2018-06-17T17:19:52.193Z,52.00
2018-06-17T17:22:20.070Z,52.20
2018-06-17T17:24:47.611Z,52.00
2018-06-17T17:27:15.552Z,52.00
2018-06-17T17:29:44.574Z,52.10
2018-06-17T17:32:18.985Z,52.60
2018-06-17T17:34:52.445Z,52.40
2018-06-17T17:37:25.738Z,53.40
2018-06-17T17:40:00.203Z,53.70
2018-06-17T17:42:28.809Z,53.60
2018-06-17T17:45:02.509Z,53.40
2018-06-17T17:47:31.627Z,53.30
2018-06-17T17:50:00.006Z,53.30
2018-06-17T17:52:28.055Z,53.20
2018-06-17T17:54:57.076Z,53.50
2018-06-17T17:57:25.212Z,53.80
2018-06-17T17:59:53.288Z,54.00
2018-06-17T18:02:20.869Z,53.60
2018-06-17T18:04:49.648Z,53.30
2018-06-17T18:09:45.220Z,53.00
2018-06-17T18:12:14.004Z,53.00
2018-06-17T18:14:42.019Z,53.30
2018-06-17T18:17:09.845Z,53.70
2018-06-17T18:19:38.328Z,54.60
2018-06-17T18:22:06.617Z,55.30
2018-06-17T18:24:34.672Z,55.60
2018-06-17T18:27:09.418Z,56.60
2018-06-17T18:29:42.776Z,65.50
2018-06-17T18:32:16.623Z,71.70
2018-06-17T18:34:51.794Z,80.60
2018-06-17T18:37:19.603Z,81.60
2018-06-17T18:39:47.618Z,83.90
2018-06-17T18:42:15.829Z,84.80
2018-06-17T18:44:44.760Z,85.30
2018-06-17T18:47:12.713Z,87.40
2018-06-17T18:49:40.827Z,89.30
2018-06-17T18:52:08.568Z,89.10
2018-06-17T18:54:36.984Z,88.50
2018-06-17T18:57:05.893Z,89.40
2018-06-17T18:59:33.782Z,92.00
2018-06-17T19:02:01.692Z,94.00
2018-06-17T19:04:30.898Z,94.50
2018-06-17T19:06:59.866Z,99.90
2018-06-17T19:09:34.338Z,98.00
2018-06-17T19:12:11.137Z,98.20
2018-06-17T19:14:45.526Z,92.80
2018-06-17T19:17:19.074Z,93.70
2018-06-17T19:19:47.207Z,95.80
2018-06-17T19:22:16.924Z,96.40
2018-06-17T19:24:45.586Z,99.20
2018-06-17T19:27:14.379Z,95.60
2018-06-17T19:29:42.766Z,95.60
2018-06-17T19:32:11.802Z,96.90
2018-06-17T19:34:39.957Z,97.60
2018-06-17T19:37:08.772Z,99.90
2018-06-17T19:39:36.917Z,99.90
2018-06-17T19:42:06.069Z,99.90
2018-06-17T19:47:03.020Z,99.90
2018-06-17T19:49:37.965Z,99.90
2018-06-17T19:52:14.406Z,99.90
2018-06-17T19:54:48.920Z,99.90
2018-06-17T19:57:22.657Z,99.90
2018-06-17T19:59:57.624Z,99.90
2018-06-17T20:02:26.153Z,99.90
2018-06-17T20:04:54.495Z,99.90
2018-06-17T20:07:22.924Z,99.90
2018-06-17T20:09:51.485Z,99.90
2018-06-17T20:12:21.141Z,99.90
2018-06-17T20:14:49.243Z,99.90
2018-06-17T20:17:17.051Z,99.90
2018-06-17T20:19:45.189Z,99.90
2018-06-17T20:22:14.080Z,99.90
2018-06-17T20:24:41.950Z,99.90
2018-06-17T20:27:10.242Z,99.90
2018-06-17T20:29:38.778Z,99.90
2018-06-17T20:32:12.893Z,99.90
2018-06-17T20:34:46.730Z,99.90
2018-06-17T20:37:20.050Z,99.90
2018-06-17T20:39:53.564Z,99.90
2018-06-17T20:42:28.360Z,99.90
2018-06-17T20:44:57.029Z,99.90
2018-06-17T20:47:24.571Z,99.90
2018-06-17T20:49:52.819Z,99.90
2018-06-17T20:52:21.123Z,99.90
2018-06-17T20:54:48.648Z,99.90
2018-06-17T20:57:16.566Z,99.90
2018-06-17T20:59:44.939Z,99.90
2018-06-17T21:02:13.207Z,99.90
2018-06-17T21:04:41.138Z,99.90
2018-06-17T21:07:09.330Z,99.90
2018-06-17T21:09:37.146Z,99.90
2018-06-17T21:12:06.130Z,99.90
2018-06-17T21:14:33.749Z,99.90
2018-06-17T21:17:01.700Z,99.90
2018-06-17T21:19:34.805Z,99.90
2018-06-17T21:23:07.077Z,99.90
2018-06-17T21:25:41.168Z,99.90
2018-06-17T21:28:08.727Z,99.90
2018-06-17T21:30:36.699Z,99.90
2018-06-17T21:33:05.078Z,99.90
2018-06-17T21:35:32.603Z,99.90
2018-06-17T21:38:00.574Z,99.90
2018-06-17T21:42:57.019Z,99.90
2018-06-17T21:47:52.890Z,99.90
2018-06-17T21:50:21.415Z,99.90
2018-06-17T21:52:48.948Z,99.90
2018-06-17T21:55:16.894Z,99.90
2018-06-17T21:57:44.517Z,99.90
2018-06-17T22:00:12.647Z,99.90
2018-06-17T22:02:41.835Z,99.90
2018-06-17T22:05:10.453Z,99.90
2018-06-17T22:07:44.298Z,99.90
2018-06-17T22:10:18.143Z,99.90
2018-06-17T22:12:51.661Z,99.90
2018-06-17T22:15:25.629Z,99.90
2018-06-17T22:17:54.292Z,99.90
2018-06-17T22:20:22.285Z,99.90
2018-06-17T22:22:49.804Z,99.90
2018-06-17T22:25:18.260Z,99.90
2018-06-17T22:27:46.596Z,99.90
2018-06-17T22:30:14.113Z,99.90
2018-06-17T22:32:42.591Z,99.90
2018-06-17T22:35:10.669Z,99.90
2018-06-17T22:37:38.210Z,99.90
2018-06-17T22:40:06.817Z,99.90
2018-06-17T22:42:35.573Z,99.90
2018-06-17T22:45:03.957Z,99.90
2018-06-17T22:47:38.652Z,99.90
2018-06-17T22:50:07.445Z,99.90
2018-06-17T22:53:46.673Z,99.90
2018-06-17T22:56:20.625Z,99.90
2018-06-17T22:58:53.809Z,99.90
2018-06-17T23:01:26.851Z,99.90
2018-06-17T23:04:00.050Z,99.90
2018-06-17T23:06:33.998Z,99.90
2018-06-17T23:09:07.369Z,99.90
2018-06-17T23:11:35.827Z,99.90
2018-06-17T23:14:03.345Z,99.90
2018-06-17T23:16:30.986Z,99.90
2018-06-17T23:18:58.903Z,99.90
2018-06-17T23:21:27.432Z,99.90
2018-06-17T23:23:54.951Z,99.90
2018-06-17T23:26:22.457Z,99.90
2018-06-17T23:28:49.988Z,99.90
2018-06-17T23:31:18.255Z,99.90
2018-06-17T23:33:46.322Z,99.90
2018-06-17T23:36:13.850Z,99.90
2018-06-17T23:38:41.382Z,99.90
2018-06-17T23:41:09.298Z,99.90
2018-06-17T23:43:38.115Z,99.90
2018-06-17T23:46:11.707Z,99.90
2018-06-17T23:48:44.839Z,99.90
2018-06-17T23:51:19.897Z,99.90
2018-06-17T23:53:53.113Z,99.90
2018-06-17T23:56:20.842Z,99.90
2018-06-17T23:58:48.376Z,99.90
